sensor_id;sensor_type;location;lat;lon;timestamp;P1;durP1;ratioP1;P2;durP2;ratioP2
25175;SDS011;13135;55.166;61.286;2023-07-31T00:01:04;11.27;;;6.82;;
25175;SDS011;13135;55.166;61.286;2023-07-31T00:03:55;11.73;;;7.12;;
25175;SDS011;13135;55.166;61.286;2023-07-31T00:06:59;14.15;;;7.15;;
25175;SDS011;13135;55.166;61.286;2023-07-31T00:09:43;12.20;;;6.90;;
25175;SDS011;13135;55.166;61.286;2023-07-31T00:12:30;13.07;;;7.28;;
25175;SDS011;13135;55.166;61.286;2023-07-31T00:15:15;12.43;;;6.85;;
25175;SDS011;13135;55.166;61.286;2023-07-31T00:18:00;10.07;;;6.65;;
25175;SDS011;13135;55.166;61.286;2023-07-31T00:20:45;10.35;;;6.57;;
25175;SDS011;13135;55.166;61.286;2023-07-31T00:23:30;11.32;;;6.75;;
25175;SDS011;13135;55.166;61.286;2023-07-31T00:26:17;10.35;;;6.40;;
25175;SDS011;13135;55.166;61.286;2023-07-31T00:29:01;12.37;;;6.93;;
25175;SDS011;13135;55.166;61.286;2023-07-31T00:31:52;10.85;;;6.93;;
25175;SDS011;13135;55.166;61.286;2023-07-31T00:34:39;9.27;;;6.18;;
25175;SDS011;13135;55.166;61.286;2023-07-31T00:37:50;11.52;;;6.62;;
25175;SDS011;13135;55.166;61.286;2023-07-31T00:40:37;12.25;;;6.85;;
25175;SDS011;13135;55.166;61.286;2023-07-31T00:43:24;9.25;;;5.95;;
25175;SDS011;13135;55.166;61.286;2023-07-31T00:46:18;15.43;;;7.03;;
25175;SDS011;13135;55.166;61.286;2023-07-31T00:49:25;14.15;;;7.07;;
25175;SDS011;13135;55.166;61.286;2023-07-31T00:52:12;13.43;;;7.00;;
25175;SDS011;13135;55.166;61.286;2023-07-31T00:55:02;9.20;;;6.60;;
25175;SDS011;13135;55.166;61.286;2023-07-31T00:58:05;12.32;;;6.60;;
25175;SDS011;13135;55.166;61.286;2023-07-31T01:00:50;8.43;;;6.07;;
25175;SDS011;13135;55.166;61.286;2023-07-31T01:03:37;9.05;;;6.18;;
25175;SDS011;13135;55.166;61.286;2023-07-31T01:06:30;9.30;;;6.43;;
25175;SDS011;13135;55.166;61.286;2023-07-31T01:09:37;10.13;;;6.07;;
25175;SDS011;13135;55.166;61.286;2023-07-31T01:12:20;14.32;;;6.60;;
25175;SDS011;13135;55.166;61.286;2023-07-31T01:15:05;11.07;;;6.47;;
25175;SDS011;13135;55.166;61.286;2023-07-31T01:17:51;10.65;;;6.65;;
25175;SDS011;13135;55.166;61.286;2023-07-31T01:20:36;10.25;;;6.18;;
25175;SDS011;13135;55.166;61.286;2023-07-31T01:23:35;11.45;;;6.20;;
25175;SDS011;13135;55.166;61.286;2023-07-31T01:26:30;11.40;;;6.15;;
25175;SDS011;13135;55.166;61.286;2023-07-31T01:29:17;11.30;;;6.15;;
25175;SDS011;13135;55.166;61.286;2023-07-31T01:32:01;11.35;;;6.57;;
25175;SDS011;13135;55.166;61.286;2023-07-31T01:34:48;10.65;;;6.50;;
25175;SDS011;13135;55.166;61.286;2023-07-31T01:37:34;10.85;;;6.30;;
25175;SDS011;13135;55.166;61.286;2023-07-31T01:40:19;9.82;;;6.35;;
25175;SDS011;13135;55.166;61.286;2023-07-31T01:43:03;13.38;;;6.53;;
25175;SDS011;13135;55.166;61.286;2023-07-31T01:45:52;9.15;;;6.28;;
25175;SDS011;13135;55.166;61.286;2023-07-31T01:55:57;12.60;;;6.87;;
25175;SDS011;13135;55.166;61.286;2023-07-31T01:58:44;9.82;;;6.87;;
25175;SDS011;13135;55.166;61.286;2023-07-31T02:01:45;8.48;;;6.50;;
25175;SDS011;13135;55.166;61.286;2023-07-31T02:08:05;13.73;;;7.60;;
25175;SDS011;13135;55.166;61.286;2023-07-31T02:10:48;21.17;;;7.05;;
25175;SDS011;13135;55.166;61.286;2023-07-31T02:13:32;11.27;;;7.50;;
25175;SDS011;13135;55.166;61.286;2023-07-31T02:22:55;12.95;;;7.53;;
25175;SDS011;13135;55.166;61.286;2023-07-31T02:26:07;14.43;;;7.82;;
25175;SDS011;13135;55.166;61.286;2023-07-31T02:28:52;11.73;;;7.20;;
25175;SDS011;13135;55.166;61.286;2023-07-31T02:31:33;12.23;;;7.43;;
25175;SDS011;13135;55.166;61.286;2023-07-31T02:37:37;12.77;;;6.65;;
25175;SDS011;13135;55.166;61.286;2023-07-31T02:40:22;16.62;;;8.95;;
25175;SDS011;13135;55.166;61.286;2023-07-31T02:53:36;9.70;;;5.60;;
25175;SDS011;13135;55.166;61.286;2023-07-31T02:59:42;12.10;;;6.35;;
25175;SDS011;13135;55.166;61.286;2023-07-31T03:02:26;9.02;;;6.53;;
25175;SDS011;13135;55.166;61.286;2023-07-31T03:05:13;12.40;;;6.40;;
25175;SDS011;13135;55.166;61.286;2023-07-31T03:08:06;11.15;;;6.40;;
25175;SDS011;13135;55.166;61.286;2023-07-31T03:10:51;8.48;;;6.05;;
25175;SDS011;13135;55.166;61.286;2023-07-31T03:13:35;8.93;;;6.15;;
25175;SDS011;13135;55.166;61.286;2023-07-31T03:16:20;13.93;;;6.85;;
25175;SDS011;13135;55.166;61.286;2023-07-31T03:19:06;11.82;;;6.57;;
25175;SDS011;13135;55.166;61.286;2023-07-31T03:21:51;13.98;;;6.80;;
25175;SDS011;13135;55.166;61.286;2023-07-31T03:24:34;11.32;;;6.03;;
25175;SDS011;13135;55.166;61.286;2023-07-31T03:27:18;13.73;;;6.87;;
25175;SDS011;13135;55.166;61.286;2023-07-31T03:30:03;12.15;;;7.53;;
25175;SDS011;13135;55.166;61.286;2023-07-31T03:32:54;15.05;;;7.37;;
25175;SDS011;13135;55.166;61.286;2023-07-31T03:36:00;12.52;;;6.90;;
25175;SDS011;13135;55.166;61.286;2023-07-31T03:38:59;13.60;;;6.82;;
25175;SDS011;13135;55.166;61.286;2023-07-31T03:48:27;14.05;;;6.60;;
25175;SDS011;13135;55.166;61.286;2023-07-31T03:51:37;10.43;;;5.72;;
25175;SDS011;13135;55.166;61.286;2023-07-31T03:54:26;9.98;;;5.75;;
25175;SDS011;13135;55.166;61.286;2023-07-31T03:57:11;9.35;;;5.15;;
25175;SDS011;13135;55.166;61.286;2023-07-31T03:59:56;7.53;;;5.22;;
25175;SDS011;13135;55.166;61.286;2023-07-31T04:06:06;10.23;;;5.97;;
25175;SDS011;13135;55.166;61.286;2023-07-31T04:12:22;8.95;;;5.50;;
25175;SDS011;13135;55.166;61.286;2023-07-31T04:15:10;8.93;;;5.82;;
25175;SDS011;13135;55.166;61.286;2023-07-31T04:17:55;9.32;;;6.18;;
25175;SDS011;13135;55.166;61.286;2023-07-31T04:21:12;13.88;;;6.25;;
25175;SDS011;13135;55.166;61.286;2023-07-31T04:24:27;8.73;;;5.68;;
25175;SDS011;13135;55.166;61.286;2023-07-31T04:30:38;9.23;;;6.28;;
25175;SDS011;13135;55.166;61.286;2023-07-31T04:33:25;9.68;;;6.10;;
25175;SDS011;13135;55.166;61.286;2023-07-31T04:46:38;7.00;;;5.18;;
25175;SDS011;13135;55.166;61.286;2023-07-31T04:49:23;8.45;;;4.95;;
25175;SDS011;13135;55.166;61.286;2023-07-31T04:52:04;8.85;;;4.93;;
25175;SDS011;13135;55.166;61.286;2023-07-31T04:54:48;6.72;;;5.07;;
25175;SDS011;13135;55.166;61.286;2023-07-31T04:57:33;8.77;;;4.68;;
25175;SDS011;13135;55.166;61.286;2023-07-31T05:00:20;6.78;;;4.85;;
25175;SDS011;13135;55.166;61.286;2023-07-31T05:03:13;7.55;;;4.78;;
25175;SDS011;13135;55.166;61.286;2023-07-31T05:05:58;7.45;;;4.87;;
25175;SDS011;13135;55.166;61.286;2023-07-31T05:08:44;9.20;;;4.90;;
25175;SDS011;13135;55.166;61.286;2023-07-31T05:11:29;8.68;;;5.15;;
25175;SDS011;13135;55.166;61.286;2023-07-31T05:14:13;8.95;;;4.80;;
25175;SDS011;13135;55.166;61.286;2023-07-31T05:16:57;10.68;;;5.03;;
25175;SDS011;13135;55.166;61.286;2023-07-31T05:19:44;9.55;;;4.70;;
25175;SDS011;13135;55.166;61.286;2023-07-31T05:22:29;9.07;;;5.18;;
25175;SDS011;13135;55.166;61.286;2023-07-31T05:25:13;7.65;;;4.95;;
25175;SDS011;13135;55.166;61.286;2023-07-31T05:28:00;12.15;;;5.35;;
25175;SDS011;13135;55.166;61.286;2023-07-31T05:30:45;7.97;;;5.37;;
25175;SDS011;13135;55.166;61.286;2023-07-31T05:33:32;9.95;;;5.80;;
25175;SDS011;13135;55.166;61.286;2023-07-31T05:36:17;8.88;;;5.22;;
25175;SDS011;13135;55.166;61.286;2023-07-31T05:39:04;7.22;;;5.05;;
25175;SDS011;13135;55.166;61.286;2023-07-31T05:41:50;7.72;;;5.45;;
25175;SDS011;13135;55.166;61.286;2023-07-31T05:44:34;8.15;;;5.55;;
25175;SDS011;13135;55.166;61.286;2023-07-31T05:57:54;8.07;;;5.20;;
25175;SDS011;13135;55.166;61.286;2023-07-31T06:00:40;9.05;;;5.55;;
25175;SDS011;13135;55.166;61.286;2023-07-31T06:03:32;10.10;;;5.25;;
25175;SDS011;13135;55.166;61.286;2023-07-31T06:06:23;7.97;;;5.20;;
25175;SDS011;13135;55.166;61.286;2023-07-31T06:09:07;8.50;;;5.30;;
25175;SDS011;13135;55.166;61.286;2023-07-31T06:18:23;6.53;;;5.28;;
25175;SDS011;13135;55.166;61.286;2023-07-31T06:21:10;9.65;;;5.35;;
25175;SDS011;13135;55.166;61.286;2023-07-31T06:23:54;8.15;;;5.10;;
25175;SDS011;13135;55.166;61.286;2023-07-31T06:26:44;10.23;;;5.55;;
25175;SDS011;13135;55.166;61.286;2023-07-31T06:39:45;8.82;;;5.85;;
25175;SDS011;13135;55.166;61.286;2023-07-31T06:42:29;9.02;;;6.18;;
25175;SDS011;13135;55.166;61.286;2023-07-31T06:45:14;8.65;;;6.05;;
25175;SDS011;13135;55.166;61.286;2023-07-31T06:47:59;9.05;;;6.43;;
25175;SDS011;13135;55.166;61.286;2023-07-31T06:57:09;7.40;;;5.07;;
25175;SDS011;13135;55.166;61.286;2023-07-31T06:59:54;8.40;;;5.80;;
25175;SDS011;13135;55.166;61.286;2023-07-31T07:02:41;9.23;;;5.95;;
25175;SDS011;13135;55.166;61.286;2023-07-31T07:05:28;7.65;;;5.70;;
25175;SDS011;13135;55.166;61.286;2023-07-31T07:08:12;7.80;;;5.72;;
25175;SDS011;13135;55.166;61.286;2023-07-31T07:10:56;8.15;;;5.72;;
25175;SDS011;13135;55.166;61.286;2023-07-31T07:13:41;8.02;;;5.20;;
25175;SDS011;13135;55.166;61.286;2023-07-31T07:16:28;7.22;;;5.30;;
25175;SDS011;13135;55.166;61.286;2023-07-31T07:19:13;6.28;;;4.85;;
25175;SDS011;13135;55.166;61.286;2023-07-31T07:21:58;7.03;;;5.50;;
25175;SDS011;13135;55.166;61.286;2023-07-31T07:24:45;9.40;;;5.47;;
25175;SDS011;13135;55.166;61.286;2023-07-31T07:27:32;8.68;;;5.82;;
25175;SDS011;13135;55.166;61.286;2023-07-31T07:30:19;7.07;;;5.60;;
25175;SDS011;13135;55.166;61.286;2023-07-31T07:33:06;6.97;;;5.30;;
25175;SDS011;13135;55.166;61.286;2023-07-31T07:35:50;7.22;;;5.65;;
25175;SDS011;13135;55.166;61.286;2023-07-31T07:38:36;8.05;;;5.78;;
25175;SDS011;13135;55.166;61.286;2023-07-31T07:41:22;8.60;;;5.20;;
25175;SDS011;13135;55.166;61.286;2023-07-31T07:44:07;8.98;;;5.15;;
25175;SDS011;13135;55.166;61.286;2023-07-31T07:46:51;9.15;;;5.87;;
25175;SDS011;13135;55.166;61.286;2023-07-31T07:49:37;7.78;;;5.90;;
25175;SDS011;13135;55.166;61.286;2023-07-31T07:52:22;7.60;;;5.47;;
25175;SDS011;13135;55.166;61.286;2023-07-31T07:55:09;9.43;;;6.10;;
25175;SDS011;13135;55.166;61.286;2023-07-31T07:57:51;7.95;;;5.30;;
25175;SDS011;13135;55.166;61.286;2023-07-31T08:00:37;8.60;;;5.35;;
25175;SDS011;13135;55.166;61.286;2023-07-31T08:03:23;7.10;;;5.10;;
25175;SDS011;13135;55.166;61.286;2023-07-31T08:06:08;6.82;;;5.35;;
25175;SDS011;13135;55.166;61.286;2023-07-31T08:08:55;7.03;;;5.18;;
25175;SDS011;13135;55.166;61.286;2023-07-31T08:11:41;8.95;;;5.55;;
25175;SDS011;13135;55.166;61.286;2023-07-31T08:14:26;7.95;;;5.78;;
25175;SDS011;13135;55.166;61.286;2023-07-31T08:17:13;5.87;;;5.10;;
25175;SDS011;13135;55.166;61.286;2023-07-31T08:19:58;7.60;;;5.72;;
25175;SDS011;13135;55.166;61.286;2023-07-31T08:22:42;10.45;;;5.32;;
25175;SDS011;13135;55.166;61.286;2023-07-31T08:25:29;7.57;;;5.62;;
25175;SDS011;13135;55.166;61.286;2023-07-31T08:38:13;9.88;;;5.18;;
25175;SDS011;13135;55.166;61.286;2023-07-31T08:41:02;6.03;;;5.20;;
25175;SDS011;13135;55.166;61.286;2023-07-31T08:43:45;8.52;;;5.47;;
25175;SDS011;13135;55.166;61.286;2023-07-31T08:46:30;8.10;;;5.22;;
25175;SDS011;13135;55.166;61.286;2023-07-31T08:49:15;8.73;;;5.75;;
25175;SDS011;13135;55.166;61.286;2023-07-31T08:52:02;5.50;;;4.82;;
25175;SDS011;13135;55.166;61.286;2023-07-31T09:04:57;12.02;;;5.45;;
25175;SDS011;13135;55.166;61.286;2023-07-31T09:10:53;6.90;;;5.32;;
25175;SDS011;13135;55.166;61.286;2023-07-31T09:13:39;6.18;;;5.37;;
25175;SDS011;13135;55.166;61.286;2023-07-31T09:16:29;6.00;;;5.03;;
25175;SDS011;13135;55.166;61.286;2023-07-31T09:19:33;8.35;;;5.65;;
25175;SDS011;13135;55.166;61.286;2023-07-31T09:22:17;7.70;;;5.55;;
25175;SDS011;13135;55.166;61.286;2023-07-31T09:28:01;6.95;;;5.35;;
25175;SDS011;13135;55.166;61.286;2023-07-31T09:30:47;7.35;;;5.62;;
25175;SDS011;13135;55.166;61.286;2023-07-31T09:33:31;8.75;;;5.60;;
25175;SDS011;13135;55.166;61.286;2023-07-31T09:36:22;7.32;;;5.80;;
25175;SDS011;13135;55.166;61.286;2023-07-31T09:39:08;7.37;;;5.28;;
25175;SDS011;13135;55.166;61.286;2023-07-31T09:41:54;8.20;;;5.97;;
25175;SDS011;13135;55.166;61.286;2023-07-31T09:48:17;8.88;;;5.25;;
25175;SDS011;13135;55.166;61.286;2023-07-31T09:51:04;9.52;;;6.03;;
25175;SDS011;13135;55.166;61.286;2023-07-31T09:53:50;7.82;;;5.30;;
25175;SDS011;13135;55.166;61.286;2023-07-31T09:56:34;8.85;;;5.25;;
25175;SDS011;13135;55.166;61.286;2023-07-31T09:59:21;7.35;;;5.07;;
25175;SDS011;13135;55.166;61.286;2023-07-31T10:02:05;8.63;;;5.32;;
25175;SDS011;13135;55.166;61.286;2023-07-31T10:04:56;5.90;;;5.20;;
25175;SDS011;13135;55.166;61.286;2023-07-31T10:07:43;5.10;;;4.60;;
25175;SDS011;13135;55.166;61.286;2023-07-31T10:10:28;5.97;;;5.00;;
25175;SDS011;13135;55.166;61.286;2023-07-31T10:13:13;5.47;;;4.97;;
25175;SDS011;13135;55.166;61.286;2023-07-31T10:15:58;5.72;;;4.70;;
25175;SDS011;13135;55.166;61.286;2023-07-31T10:18:49;6.00;;;4.87;;
25175;SDS011;13135;55.166;61.286;2023-07-31T10:21:36;6.22;;;4.97;;
25175;SDS011;13135;55.166;61.286;2023-07-31T10:24:26;7.45;;;4.80;;
25175;SDS011;13135;55.166;61.286;2023-07-31T10:27:11;8.35;;;5.03;;
25175;SDS011;13135;55.166;61.286;2023-07-31T10:29:57;6.35;;;5.07;;
25175;SDS011;13135;55.166;61.286;2023-07-31T10:32:40;5.40;;;4.90;;
25175;SDS011;13135;55.166;61.286;2023-07-31T10:35:25;10.18;;;5.30;;
25175;SDS011;13135;55.166;61.286;2023-07-31T10:38:10;10.13;;;5.25;;
25175;SDS011;13135;55.166;61.286;2023-07-31T10:40:57;6.62;;;5.35;;
25175;SDS011;13135;55.166;61.286;2023-07-31T10:43:39;7.32;;;5.20;;
25175;SDS011;13135;55.166;61.286;2023-07-31T10:46:29;7.10;;;5.22;;
25175;SDS011;13135;55.166;61.286;2023-07-31T10:49:14;6.30;;;5.10;;
25175;SDS011;13135;55.166;61.286;2023-07-31T10:51:58;6.00;;;5.15;;
25175;SDS011;13135;55.166;61.286;2023-07-31T10:54:45;6.62;;;5.18;;
25175;SDS011;13135;55.166;61.286;2023-07-31T10:57:29;7.70;;;5.45;;
25175;SDS011;13135;55.166;61.286;2023-07-31T11:00:18;6.55;;;5.05;;
25175;SDS011;13135;55.166;61.286;2023-07-31T11:03:07;7.40;;;5.37;;
25175;SDS011;13135;55.166;61.286;2023-07-31T11:06:01;8.13;;;5.50;;
25175;SDS011;13135;55.166;61.286;2023-07-31T11:08:49;7.07;;;5.60;;
25175;SDS011;13135;55.166;61.286;2023-07-31T11:11:35;6.75;;;4.95;;
25175;SDS011;13135;55.166;61.286;2023-07-31T11:14:21;6.70;;;4.85;;
25175;SDS011;13135;55.166;61.286;2023-07-31T11:17:06;6.97;;;5.32;;
25175;SDS011;13135;55.166;61.286;2023-07-31T11:30:20;7.87;;;4.82;;
25175;SDS011;13135;55.166;61.286;2023-07-31T11:33:05;6.20;;;4.78;;
25175;SDS011;13135;55.166;61.286;2023-07-31T11:35:49;6.37;;;5.05;;
25175;SDS011;13135;55.166;61.286;2023-07-31T11:38:34;6.47;;;5.30;;
25175;SDS011;13135;55.166;61.286;2023-07-31T11:41:21;6.60;;;4.68;;
25175;SDS011;13135;55.166;61.286;2023-07-31T11:44:08;6.50;;;5.30;;
25175;SDS011;13135;55.166;61.286;2023-07-31T11:56:58;8.23;;;5.37;;
25175;SDS011;13135;55.166;61.286;2023-07-31T11:59:43;6.28;;;5.40;;
25175;SDS011;13135;55.166;61.286;2023-07-31T12:02:32;6.30;;;4.90;;
25175;SDS011;13135;55.166;61.286;2023-07-31T12:05:17;6.10;;;4.78;;
25175;SDS011;13135;55.166;61.286;2023-07-31T12:08:08;8.60;;;5.40;;
25175;SDS011;13135;55.166;61.286;2023-07-31T12:10:53;10.00;;;5.55;;
25175;SDS011;13135;55.166;61.286;2023-07-31T12:13:39;8.60;;;5.00;;
25175;SDS011;13135;55.166;61.286;2023-07-31T12:16:25;7.07;;;4.90;;
25175;SDS011;13135;55.166;61.286;2023-07-31T12:19:11;6.15;;;4.65;;
25175;SDS011;13135;55.166;61.286;2023-07-31T12:21:56;5.70;;;4.97;;
25175;SDS011;13135;55.166;61.286;2023-07-31T12:24:47;5.87;;;4.78;;
25175;SDS011;13135;55.166;61.286;2023-07-31T12:27:34;5.72;;;4.80;;
25175;SDS011;13135;55.166;61.286;2023-07-31T12:30:26;6.03;;;4.87;;
25175;SDS011;13135;55.166;61.286;2023-07-31T12:33:15;6.80;;;5.30;;
25175;SDS011;13135;55.166;61.286;2023-07-31T12:36:01;7.10;;;5.35;;
25175;SDS011;13135;55.166;61.286;2023-07-31T12:38:46;7.12;;;5.18;;
25175;SDS011;13135;55.166;61.286;2023-07-31T12:41:31;10.30;;;5.70;;
25175;SDS011;13135;55.166;61.286;2023-07-31T12:44:17;5.70;;;5.15;;
25175;SDS011;13135;55.166;61.286;2023-07-31T12:47:02;9.40;;;5.60;;
25175;SDS011;13135;55.166;61.286;2023-07-31T12:49:46;8.50;;;5.30;;
25175;SDS011;13135;55.166;61.286;2023-07-31T12:52:30;10.73;;;5.80;;
25175;SDS011;13135;55.166;61.286;2023-07-31T12:55:15;7.60;;;5.70;;
25175;SDS011;13135;55.166;61.286;2023-07-31T12:58:02;10.30;;;5.57;;
25175;SDS011;13135;55.166;61.286;2023-07-31T13:00:49;9.23;;;5.80;;
25175;SDS011;13135;55.166;61.286;2023-07-31T13:03:34;8.80;;;5.72;;
25175;SDS011;13135;55.166;61.286;2023-07-31T13:06:21;7.93;;;5.82;;
25175;SDS011;13135;55.166;61.286;2023-07-31T13:09:05;8.88;;;5.80;;
25175;SDS011;13135;55.166;61.286;2023-07-31T13:11:49;12.35;;;6.70;;
25175;SDS011;13135;55.166;61.286;2023-07-31T13:14:34;7.05;;;5.95;;
25175;SDS011;13135;55.166;61.286;2023-07-31T13:17:23;8.35;;;5.75;;
25175;SDS011;13135;55.166;61.286;2023-07-31T13:20:10;8.52;;;5.60;;
25175;SDS011;13135;55.166;61.286;2023-07-31T13:22:57;7.47;;;5.75;;
25175;SDS011;13135;55.166;61.286;2023-07-31T13:25:44;7.97;;;5.80;;
25175;SDS011;13135;55.166;61.286;2023-07-31T13:28:31;7.78;;;5.62;;
25175;SDS011;13135;55.166;61.286;2023-07-31T13:31:17;9.23;;;6.12;;
25175;SDS011;13135;55.166;61.286;2023-07-31T13:34:08;11.25;;;5.78;;
25175;SDS011;13135;55.166;61.286;2023-07-31T13:36:54;10.68;;;6.03;;
25175;SDS011;13135;55.166;61.286;2023-07-31T13:39:38;7.85;;;5.95;;
25175;SDS011;13135;55.166;61.286;2023-07-31T13:42:24;8.70;;;5.75;;
25175;SDS011;13135;55.166;61.286;2023-07-31T13:45:22;9.40;;;5.53;;
25175;SDS011;13135;55.166;61.286;2023-07-31T13:48:06;7.43;;;5.80;;
25175;SDS011;13135;55.166;61.286;2023-07-31T13:54:25;6.60;;;5.40;;
25175;SDS011;13135;55.166;61.286;2023-07-31T13:57:09;7.93;;;5.80;;
25175;SDS011;13135;55.166;61.286;2023-07-31T13:59:53;7.00;;;5.57;;
25175;SDS011;13135;55.166;61.286;2023-07-31T14:02:37;9.00;;;5.93;;
25175;SDS011;13135;55.166;61.286;2023-07-31T14:05:20;9.80;;;5.43;;
25175;SDS011;13135;55.166;61.286;2023-07-31T14:08:04;8.15;;;6.40;;
25175;SDS011;13135;55.166;61.286;2023-07-31T14:10:48;9.45;;;5.95;;
25175;SDS011;13135;55.166;61.286;2023-07-31T14:13:35;9.70;;;6.00;;
25175;SDS011;13135;55.166;61.286;2023-07-31T14:16:19;10.07;;;6.25;;
25175;SDS011;13135;55.166;61.286;2023-07-31T14:19:04;9.55;;;6.28;;
25175;SDS011;13135;55.166;61.286;2023-07-31T14:21:55;8.75;;;5.55;;
25175;SDS011;13135;55.166;61.286;2023-07-31T14:35:28;8.52;;;5.78;;
25175;SDS011;13135;55.166;61.286;2023-07-31T14:49:11;13.23;;;6.85;;
25175;SDS011;13135;55.166;61.286;2023-07-31T14:52:14;12.73;;;7.00;;
25175;SDS011;13135;55.166;61.286;2023-07-31T15:15:38;8.43;;;6.22;;
25175;SDS011;13135;55.166;61.286;2023-07-31T15:22:10;9.20;;;6.43;;
25175;SDS011;13135;55.166;61.286;2023-07-31T15:28:21;10.88;;;6.10;;
25175;SDS011;13135;55.166;61.286;2023-07-31T15:31:34;10.13;;;5.90;;
25175;SDS011;13135;55.166;61.286;2023-07-31T15:55:32;10.93;;;7.00;;
25175;SDS011;13135;55.166;61.286;2023-07-31T15:58:43;8.82;;;7.05;;
25175;SDS011;13135;55.166;61.286;2023-07-31T16:05:17;10.23;;;7.07;;
25175;SDS011;13135;55.166;61.286;2023-07-31T16:14:43;11.90;;;6.85;;
25175;SDS011;13135;55.166;61.286;2023-07-31T16:17:39;10.20;;;6.85;;
25175;SDS011;13135;55.166;61.286;2023-07-31T16:20:47;9.18;;;6.35;;
25175;SDS011;13135;55.166;61.286;2023-07-31T16:23:48;8.68;;;6.75;;
25175;SDS011;13135;55.166;61.286;2023-07-31T16:26:48;9.85;;;6.43;;
25175;SDS011;13135;55.166;61.286;2023-07-31T16:50:07;8.40;;;6.82;;
25175;SDS011;13135;55.166;61.286;2023-07-31T16:53:08;9.43;;;5.68;;
25175;SDS011;13135;55.166;61.286;2023-07-31T16:55:55;10.95;;;6.60;;
25175;SDS011;13135;55.166;61.286;2023-07-31T16:58:38;9.25;;;6.93;;
25175;SDS011;13135;55.166;61.286;2023-07-31T17:08:17;7.03;;;5.95;;
25175;SDS011;13135;55.166;61.286;2023-07-31T17:31:28;8.10;;;5.80;;
25175;SDS011;13135;55.166;61.286;2023-07-31T17:34:14;8.35;;;5.45;;
25175;SDS011;13135;55.166;61.286;2023-07-31T17:37:01;6.47;;;5.47;;
25175;SDS011;13135;55.166;61.286;2023-07-31T17:39:47;6.90;;;6.07;;
25175;SDS011;13135;55.166;61.286;2023-07-31T17:42:31;8.50;;;6.07;;
25175;SDS011;13135;55.166;61.286;2023-07-31T17:45:16;8.00;;;6.15;;
25175;SDS011;13135;55.166;61.286;2023-07-31T17:48:02;10.63;;;6.05;;
25175;SDS011;13135;55.166;61.286;2023-07-31T17:50:50;6.45;;;5.78;;
25175;SDS011;13135;55.166;61.286;2023-07-31T17:53:37;7.15;;;5.60;;
25175;SDS011;13135;55.166;61.286;2023-07-31T17:56:24;7.85;;;6.03;;
25175;SDS011;13135;55.166;61.286;2023-07-31T17:59:10;8.25;;;5.85;;
25175;SDS011;13135;55.166;61.286;2023-07-31T18:02:02;8.10;;;6.30;;
25175;SDS011;13135;55.166;61.286;2023-07-31T18:04:45;8.85;;;5.65;;
25175;SDS011;13135;55.166;61.286;2023-07-31T18:07:30;8.00;;;6.00;;
25175;SDS011;13135;55.166;61.286;2023-07-31T18:10:15;7.25;;;5.87;;
25175;SDS011;13135;55.166;61.286;2023-07-31T18:13:01;9.05;;;5.90;;
25175;SDS011;13135;55.166;61.286;2023-07-31T18:15:48;8.32;;;5.40;;
25175;SDS011;13135;55.166;61.286;2023-07-31T18:18:35;6.30;;;5.47;;
25175;SDS011;13135;55.166;61.286;2023-07-31T18:21:21;7.30;;;5.43;;
25175;SDS011;13135;55.166;61.286;2023-07-31T18:24:06;9.02;;;6.47;;
25175;SDS011;13135;55.166;61.286;2023-07-31T18:26:53;9.20;;;5.80;;
25175;SDS011;13135;55.166;61.286;2023-07-31T18:29:37;9.82;;;6.12;;
25175;SDS011;13135;55.166;61.286;2023-07-31T18:32:24;7.07;;;5.72;;
25175;SDS011;13135;55.166;61.286;2023-07-31T18:35:10;6.40;;;5.68;;
25175;SDS011;13135;55.166;61.286;2023-07-31T18:38:00;7.12;;;5.57;;
25175;SDS011;13135;55.166;61.286;2023-07-31T18:40:45;7.20;;;5.87;;
25175;SDS011;13135;55.166;61.286;2023-07-31T18:43:29;7.15;;;5.68;;
25175;SDS011;13135;55.166;61.286;2023-07-31T18:46:13;7.00;;;5.50;;
25175;SDS011;13135;55.166;61.286;2023-07-31T18:49:00;6.75;;;5.60;;
25175;SDS011;13135;55.166;61.286;2023-07-31T18:51:45;8.35;;;5.53;;
25175;SDS011;13135;55.166;61.286;2023-07-31T18:54:29;7.87;;;5.78;;
25175;SDS011;13135;55.166;61.286;2023-07-31T18:57:13;10.63;;;5.90;;
25175;SDS011;13135;55.166;61.286;2023-07-31T19:00:00;6.62;;;5.60;;
25175;SDS011;13135;55.166;61.286;2023-07-31T19:02:45;7.37;;;5.68;;
25175;SDS011;13135;55.166;61.286;2023-07-31T19:05:32;9.05;;;6.00;;
25175;SDS011;13135;55.166;61.286;2023-07-31T19:08:17;8.38;;;6.32;;
25175;SDS011;13135;55.166;61.286;2023-07-31T19:11:04;10.85;;;5.85;;
25175;SDS011;13135;55.166;61.286;2023-07-31T19:13:49;9.63;;;6.40;;
25175;SDS011;13135;55.166;61.286;2023-07-31T19:16:33;7.70;;;6.12;;
25175;SDS011;13135;55.166;61.286;2023-07-31T19:19:20;8.00;;;6.15;;
25175;SDS011;13135;55.166;61.286;2023-07-31T19:22:07;8.60;;;6.18;;
25175;SDS011;13135;55.166;61.286;2023-07-31T19:24:51;8.55;;;6.65;;
25175;SDS011;13135;55.166;61.286;2023-07-31T19:27:36;9.18;;;6.87;;
25175;SDS011;13135;55.166;61.286;2023-07-31T19:30:21;7.43;;;6.55;;
25175;SDS011;13135;55.166;61.286;2023-07-31T19:33:05;9.40;;;7.05;;
25175;SDS011;13135;55.166;61.286;2023-07-31T19:35:54;8.60;;;6.97;;
25175;SDS011;13135;55.166;61.286;2023-07-31T19:38:41;9.48;;;7.35;;
25175;SDS011;13135;55.166;61.286;2023-07-31T19:41:29;10.07;;;7.30;;
25175;SDS011;13135;55.166;61.286;2023-07-31T19:44:11;9.52;;;7.47;;
25175;SDS011;13135;55.166;61.286;2023-07-31T19:46:58;8.77;;;7.22;;
25175;SDS011;13135;55.166;61.286;2023-07-31T19:49:45;11.27;;;7.93;;
25175;SDS011;13135;55.166;61.286;2023-07-31T19:52:30;9.50;;;7.65;;
25175;SDS011;13135;55.166;61.286;2023-07-31T19:55:15;10.50;;;8.02;;
25175;SDS011;13135;55.166;61.286;2023-07-31T19:57:56;13.57;;;8.13;;
25175;SDS011;13135;55.166;61.286;2023-07-31T20:00:38;10.45;;;7.85;;
25175;SDS011;13135;55.166;61.286;2023-07-31T20:03:25;11.43;;;8.13;;
25175;SDS011;13135;55.166;61.286;2023-07-31T20:06:10;10.68;;;8.48;;
25175;SDS011;13135;55.166;61.286;2023-07-31T20:08:55;11.10;;;8.77;;
25175;SDS011;13135;55.166;61.286;2023-07-31T20:11:39;11.35;;;8.75;;
25175;SDS011;13135;55.166;61.286;2023-07-31T20:14:25;11.10;;;8.93;;
25175;SDS011;13135;55.166;61.286;2023-07-31T20:17:09;13.35;;;9.25;;
25175;SDS011;13135;55.166;61.286;2023-07-31T20:19:54;12.23;;;9.23;;
25175;SDS011;13135;55.166;61.286;2023-07-31T20:22:39;11.18;;;8.43;;
25175;SDS011;13135;55.166;61.286;2023-07-31T20:25:24;11.18;;;8.18;;
25175;SDS011;13135;55.166;61.286;2023-07-31T20:28:08;11.27;;;7.97;;
25175;SDS011;13135;55.166;61.286;2023-07-31T20:30:54;10.15;;;7.82;;
25175;SDS011;13135;55.166;61.286;2023-07-31T20:33:38;11.60;;;8.00;;
25175;SDS011;13135;55.166;61.286;2023-07-31T20:36:25;10.35;;;8.07;;
25175;SDS011;13135;55.166;61.286;2023-07-31T20:39:10;12.37;;;8.82;;
25175;SDS011;13135;55.166;61.286;2023-07-31T20:41:58;11.02;;;8.20;;
25175;SDS011;13135;55.166;61.286;2023-07-31T20:44:45;11.82;;;7.80;;
25175;SDS011;13135;55.166;61.286;2023-07-31T20:47:32;9.25;;;7.97;;
25175;SDS011;13135;55.166;61.286;2023-07-31T20:50:19;11.25;;;7.40;;
25175;SDS011;13135;55.166;61.286;2023-07-31T20:53:05;12.13;;;7.47;;
25175;SDS011;13135;55.166;61.286;2023-07-31T20:55:50;9.55;;;6.93;;
25175;SDS011;13135;55.166;61.286;2023-07-31T20:58:38;9.60;;;7.18;;
25175;SDS011;13135;55.166;61.286;2023-07-31T21:01:24;10.75;;;7.28;;
25175;SDS011;13135;55.166;61.286;2023-07-31T21:04:09;9.40;;;7.05;;
25175;SDS011;13135;55.166;61.286;2023-07-31T21:06:56;8.88;;;7.03;;